| time (UTC) | temp C | wind direction | speed KPH | gust KPH | rain 1hr cm | rain 24hr cm | rain mn cm | humidity % | barometer mb |
| 20260906034843 | 12 | 1.6 | 0.0 | 0.00 | 0.00 | 0.00 | 100 | 1021.0 | |
| 20260906033444 | 12 | 1.6 | 0.0 | 0.00 | 0.00 | 0.00 | 100 | 1021.0 | |
| 20260906031943 | 12 | 250 | 4.8 | 0.0 | 0.00 | 0.00 | 0.00 | 94 | 1020.0 |
| 20260906030443 | 12 | 250 | 4.8 | 0.0 | 0.00 | 0.00 | 0.00 | 94 | 1020.0 |
| 20260906024853 | 12 | 230 | 9.7 | 0.0 | 0.00 | 0.00 | 0.00 | 94 | 1020.0 |
| 20260906023326 | 12 | 230 | 9.7 | 0.0 | 0.00 | 0.00 | 0.00 | 94 | 1020.0 |
| 20260906021833 | 13 | 220 | 4.8 | 0.0 | 0.00 | 0.00 | 0.00 | 94 | 1020.0 |
| 20260906020328 | 13 | 220 | 4.8 | 0.0 | 0.00 | 0.00 | 0.00 | 94 | 1020.0 |
| 20260906014828 | 15 | 250 | 8.0 | 0.0 | 0.00 | 0.00 | 0.00 | 94 | 1020.0 |
| 20260906013444 | 15 | 250 | 8.0 | 0.0 | 0.00 | 0.00 | 0.00 | 94 | 1020.0 |
| 20260906011826 | 15 | 220 | 3.2 | 0.0 | 0.00 | 0.00 | 0.00 | 94 | 1020.0 |
| 20260906010326 | 15 | 220 | 3.2 | 0.0 | 0.00 | 0.00 | 0.00 | 94 | 1020.0 |
| 20260906004944 | 15 | 210 | 8.0 | 0.0 | 0.00 | 0.00 | 0.00 | 94 | 1020.0 |
| 20260906003454 | 15 | 210 | 8.0 | 0.0 | 0.00 | 0.00 | 0.00 | 94 | 1020.0 |
| 20260906001944 | 16 | 200 | 8.0 | 0.0 | 0.00 | 0.00 | 0.00 | 94 | 1019.0 |
| 20260906000433 | 16 | 200 | 8.0 | 0.0 | 0.00 | 0.00 | 0.00 | 94 | 1019.0 |
| 20260905234836 | 16 | 210 | 4.8 | 0.0 | 0.00 | 0.00 | 0.00 | 94 | 1019.0 |
| 20260905233326 | 16 | 210 | 4.8 | 0.0 | 0.00 | 0.00 | 0.00 | 94 | 1019.0 |
| 20260905231944 | 16 | 170 | 3.2 | 0.0 | 0.00 | 0.00 | 0.00 | 94 | 1019.0 |
| 20260905230358 | 16 | 170 | 3.2 | 0.0 | 0.00 | 0.00 | 0.00 | 94 | 1019.0 |
| 20260905224944 | 17 | 260 | 8.0 | 0.0 | 0.00 | 0.00 | 0.00 | 94 | 1019.0 |
| 20260905223340 | 17 | 260 | 8.0 | 0.0 | 0.00 | 0.00 | 0.00 | 94 | 1019.0 |
| 20260905221929 | 17 | 230 | 11.3 | 0.0 | 0.00 | 0.00 | 0.00 | 94 | 1019.0 |
| 20260905220444 | 17 | 230 | 11.3 | 0.0 | 0.00 | 0.00 | 0.00 | 94 | 1019.0 |
| 20260905214943 | 17 | 230 | 8.0 | 0.0 | 0.00 | 0.00 | 0.00 | 94 | 1019.0 |
| 20260905213326 | 17 | 230 | 8.0 | 0.0 | 0.00 | 0.00 | 0.00 | 94 | 1019.0 |
| 20260905211826 | 17 | 3.2 | 0.0 | 0.00 | 0.00 | 0.00 | 94 | 1019.0 | |
| 20260905210326 | 17 | 3.2 | 0.0 | 0.00 | 0.00 | 0.00 | 94 | 1019.0 | |
| 20260905204837 | 17 | 280 | 8.0 | 0.0 | 0.00 | 0.00 | 0.00 | 94 | 1018.0 |
| 20260905203326 | 17 | 280 | 8.0 | 0.0 | 0.00 | 0.00 | 0.00 | 94 | 1018.0 |
| 20260905201826 | 18 | 190 | 4.8 | 0.0 | 0.00 | 0.00 | 0.00 | 88 | 1018.0 |
| 20260905200444 | 18 | 190 | 4.8 | 0.0 | 0.00 | 0.00 | 0.00 | 88 | 1018.0 |
| 20260905194935 | 18 | 240 | 9.7 | 0.0 | 0.00 | 0.00 | 0.00 | 88 | 1018.0 |
| 20260905193326 | 18 | 240 | 9.7 | 0.0 | 0.00 | 0.00 | 0.00 | 88 | 1018.0 |
| 20260905191855 | 18 | 150 | 8.0 | 0.0 | 0.00 | 0.00 | 0.00 | 83 | 1018.0 |
| 20260905190327 | 18 | 150 | 8.0 | 0.0 | 0.00 | 0.00 | 0.00 | 83 | 1018.0 |
| 20260905183331 | 20 | 350 | 16.1 | 0.0 | 0.00 | 0.00 | 0.00 | 83 | 1017.0 |
| 20260905174823 | 23 | 340 | 8.0 | 0.0 | 0.00 | 0.00 | 0.00 | 61 | 1016.0 |
| 20260905173326 | 23 | 340 | 8.0 | 0.0 | 0.00 | 0.00 | 0.00 | 61 | 1016.0 |
| 20260905171834 | 25 | 340 | 9.7 | 0.0 | 0.00 | 0.00 | 0.00 | 57 | 1016.0 |
| 20260905170326 | 25 | 340 | 9.7 | 0.0 | 0.00 | 0.00 | 0.00 | 57 | 1016.0 |
| 20260905164826 | 25 | 350 | 11.3 | 0.0 | 0.00 | 0.00 | 0.00 | 57 | 1016.0 |
| 20260905163327 | 25 | 350 | 11.3 | 0.0 | 0.00 | 0.00 | 0.00 | 57 | 1016.0 |
| 20260905160327 | 26 | 330 | 27.4 | 0.0 | 0.00 | 0.00 | 0.00 | 58 | 1016.0 |
| 20260905153326 | 27 | 320 | 33.8 | 0.0 | 0.00 | 0.00 | 0.00 | 48 | 1015.0 |
| 20260905151827 | 28 | 320 | 33.8 | 0.0 | 0.00 | 0.00 | 0.00 | 48 | 1014.0 |
| 20260905150327 | 28 | 320 | 33.8 | 0.0 | 0.00 | 0.00 | 0.00 | 48 | 1014.0 |
| 20260905143326 | 31 | 320 | 25.7 | 0.0 | 0.00 | 0.00 | 0.00 | 43 | 1014.0 |
| 20260905141824 | 32 | 310 | 22.5 | 0.0 | 0.00 | 0.00 | 0.00 | 41 | 1013.0 |
| 20260905140323 | 32 | 310 | 22.5 | 0.0 | 0.00 | 0.00 | 0.00 | 41 | 1013.0 |
| 20260905134941 | 32 | 220 | 9.7 | 0.0 | 0.00 | 0.00 | 0.00 | 43 | 1013.0 |
| 20260905133326 | 32 | 220 | 9.7 | 0.0 | 0.00 | 0.00 | 0.00 | 43 | 1013.0 |
| 20260905131829 | 32 | 150 | 8.0 | 0.0 | 0.00 | 0.00 | 0.00 | 41 | 1014.0 |
| 20260905130348 | 32 | 150 | 8.0 | 0.0 | 0.00 | 0.00 | 0.00 | 41 | 1014.0 |
| 20260905124824 | 32 | 260 | 14.5 | 0.0 | 0.00 | 0.00 | 0.00 | 41 | 1014.0 |
| 20260905123327 | 32 | 260 | 14.5 | 0.0 | 0.00 | 0.00 | 0.00 | 41 | 1014.0 |
| 20260905121854 | 32 | 240 | 16.1 | 0.0 | 0.00 | 0.00 | 0.00 | 41 | 1014.0 |
| 20260905120327 | 32 | 240 | 16.1 | 0.0 | 0.00 | 0.00 | 0.00 | 41 | 1014.0 |
| 20260905114827 | 32 | 210 | 11.3 | 0.0 | 0.00 | 0.00 | 0.00 | 41 | 1015.0 |
| 20260905113326 | 32 | 210 | 11.3 | 0.0 | 0.00 | 0.00 | 0.00 | 41 | 1015.0 |
| 20260905111845 | 32 | 220 | 11.3 | 0.0 | 0.00 | 0.00 | 0.00 | 43 | 1015.0 |
| 20260905110326 | 32 | 220 | 11.3 | 0.0 | 0.00 | 0.00 | 0.00 | 43 | 1015.0 |
| 20260905104826 | 32 | 230 | 14.5 | 0.0 | 0.00 | 0.00 | 0.00 | 43 | 1015.0 |
| 20260905103326 | 32 | 230 | 14.5 | 0.0 | 0.00 | 0.00 | 0.00 | 43 | 1015.0 |
| 20260905101826 | 30 | 220 | 12.9 | 0.0 | 0.00 | 0.00 | 0.00 | 46 | 1015.0 |
| 20260905100327 | 30 | 220 | 12.9 | 0.0 | 0.00 | 0.00 | 0.00 | 46 | 1015.0 |
| 20260905094944 | 30 | 210 | 14.5 | 0.0 | 0.00 | 0.00 | 0.00 | 46 | 1015.0 |
| 20260905093326 | 30 | 210 | 14.5 | 0.0 | 0.00 | 0.00 | 0.00 | 46 | 1015.0 |
| 20260905091826 | 28 | 200 | 12.9 | 0.0 | 0.00 | 0.00 | 0.00 | 48 | 1016.0 |
| 20260905090326 | 28 | 200 | 12.9 | 0.0 | 0.00 | 0.00 | 0.00 | 48 | 1016.0 |
| 20260905084826 | 27 | 210 | 8.0 | 0.0 | 0.00 | 0.00 | 0.00 | 54 | 1016.0 |
| 20260905083326 | 27 | 210 | 8.0 | 0.0 | 0.00 | 0.00 | 0.00 | 54 | 1016.0 |
| 20260905081826 | 25 | 8.0 | 0.0 | 0.00 | 0.00 | 0.00 | 57 | 1016.0 | |
| 20260905080327 | 25 | 8.0 | 0.0 | 0.00 | 0.00 | 0.00 | 57 | 1016.0 | |
| 20260905074826 | 22 | 70 | 9.7 | 0.0 | 0.00 | 0.00 | 0.00 | 65 | 1016.0 |
| 20260905073335 | 22 | 70 | 9.7 | 0.0 | 0.00 | 0.00 | 0.00 | 65 | 1016.0 |
| 20260905071827 | 21 | 80 | 11.3 | 0.0 | 0.00 | 0.00 | 0.00 | 73 | 1017.0 |
| 20260905070326 | 21 | 80 | 11.3 | 0.0 | 0.00 | 0.00 | 0.00 | 73 | 1017.0 |
| 20260905064827 | 17 | 60 | 11.3 | 0.0 | 0.00 | 0.00 | 0.00 | 83 | 1017.0 |
| 20260905063327 | 17 | 60 | 11.3 | 0.0 | 0.00 | 0.00 | 0.00 | 83 | 1017.0 |
| 20260905061827 | 17 | 80 | 12.9 | 0.0 | 0.00 | 0.00 | 0.00 | 83 | 1017.0 |
| 20260905060327 | 17 | 80 | 12.9 | 0.0 | 0.00 | 0.00 | 0.00 | 83 | 1017.0 |
| 20260905054827 | 15 | 70 | 11.3 | 0.0 | 0.00 | 0.00 | 0.00 | 88 | 1017.0 |
| 20260905053327 | 15 | 70 | 11.3 | 0.0 | 0.00 | 0.00 | 0.00 | 88 | 1017.0 |
| 20260905051826 | 13 | 90 | 11.3 | 0.0 | 0.00 | 0.00 | 0.00 | 94 | 1017.0 |
| 20260905050327 | 13 | 90 | 11.3 | 0.0 | 0.00 | 0.00 | 0.00 | 94 | 1017.0 |
| 20260905044827 | 12 | 90 | 11.3 | 0.0 | 0.00 | 0.00 | 0.00 | 94 | 1017.0 |
| 20260905043326 | 12 | 90 | 11.3 | 0.0 | 0.00 | 0.00 | 0.00 | 94 | 1017.0 |
| 20260905041826 | 12 | 90 | 9.7 | 0.0 | 0.00 | 0.00 | 0.00 | 100 | 1017.0 |
| 20260905040326 | 12 | 90 | 9.7 | 0.0 | 0.00 | 0.00 | 0.00 | 100 | 1017.0 |